sensor_id;sensor_type;location;lat;lon;timestamp;P1;durP1;ratioP1;P2;durP2;ratioP2
73239;SDS011;61452;40.054;4.110;2024-02-23T00:02:23;4.25;;;2.00;;
73239;SDS011;61452;40.054;4.110;2024-02-23T00:07:25;2.95;;;1.73;;
73239;SDS011;61452;40.054;4.110;2024-02-23T00:12:27;5.68;;;2.10;;
73239;SDS011;61452;40.054;4.110;2024-02-23T00:17:29;4.78;;;2.03;;
73239;SDS011;61452;40.054;4.110;2024-02-23T00:22:32;4.65;;;1.80;;
73239;SDS011;61452;40.054;4.110;2024-02-23T00:27:35;4.55;;;1.42;;
73239;SDS011;61452;40.054;4.110;2024-02-23T00:32:38;4.68;;;1.77;;
73239;SDS011;61452;40.054;4.110;2024-02-23T00:37:40;4.88;;;1.73;;
73239;SDS011;61452;40.054;4.110;2024-02-23T00:42:42;7.57;;;2.53;;
73239;SDS011;61452;40.054;4.110;2024-02-23T00:47:44;3.22;;;1.48;;
73239;SDS011;61452;40.054;4.110;2024-02-23T00:52:48;6.20;;;2.05;;
73239;SDS011;61452;40.054;4.110;2024-02-23T00:57:50;3.28;;;1.40;;
73239;SDS011;61452;40.054;4.110;2024-02-23T01:02:52;4.25;;;1.70;;
73239;SDS011;61452;40.054;4.110;2024-02-23T01:07:54;5.35;;;1.92;;
73239;SDS011;61452;40.054;4.110;2024-02-23T01:12:57;3.70;;;1.70;;
73239;SDS011;61452;40.054;4.110;2024-02-23T01:17:59;5.28;;;1.63;;
73239;SDS011;61452;40.054;4.110;2024-02-23T01:23:01;4.22;;;1.63;;
73239;SDS011;61452;40.054;4.110;2024-02-23T01:28:03;5.05;;;1.40;;
73239;SDS011;61452;40.054;4.110;2024-02-23T01:33:06;4.90;;;1.40;;
73239;SDS011;61452;40.054;4.110;2024-02-23T01:38:08;5.30;;;1.92;;
73239;SDS011;61452;40.054;4.110;2024-02-23T01:43:10;3.90;;;1.33;;
73239;SDS011;61452;40.054;4.110;2024-02-23T01:48:12;3.75;;;1.25;;
73239;SDS011;61452;40.054;4.110;2024-02-23T01:53:14;2.85;;;1.50;;
73239;SDS011;61452;40.054;4.110;2024-02-23T01:58:18;4.30;;;1.40;;
73239;SDS011;61452;40.054;4.110;2024-02-23T02:03:20;4.10;;;1.60;;
73239;SDS011;61452;40.054;4.110;2024-02-23T02:08:23;3.47;;;1.30;;
73239;SDS011;61452;40.054;4.110;2024-02-23T02:13:27;3.88;;;1.27;;
73239;SDS011;61452;40.054;4.110;2024-02-23T02:18:30;3.72;;;1.30;;
73239;SDS011;61452;40.054;4.110;2024-02-23T02:23:32;3.40;;;1.10;;
73239;SDS011;61452;40.054;4.110;2024-02-23T02:28:34;3.50;;;1.17;;
73239;SDS011;61452;40.054;4.110;2024-02-23T02:33:36;6.00;;;1.70;;
73239;SDS011;61452;40.054;4.110;2024-02-23T02:38:38;6.10;;;1.02;;
73239;SDS011;61452;40.054;4.110;2024-02-23T02:43:41;3.83;;;1.27;;
73239;SDS011;61452;40.054;4.110;2024-02-23T02:48:43;4.88;;;1.33;;
73239;SDS011;61452;40.054;4.110;2024-02-23T02:53:45;3.88;;;1.17;;
73239;SDS011;61452;40.054;4.110;2024-02-23T02:58:47;4.70;;;1.40;;
73239;SDS011;61452;40.054;4.110;2024-02-23T03:03:49;4.03;;;0.93;;
73239;SDS011;61452;40.054;4.110;2024-02-23T03:08:52;4.78;;;1.20;;
73239;SDS011;61452;40.054;4.110;2024-02-23T03:13:54;5.63;;;0.98;;
73239;SDS011;61452;40.054;4.110;2024-02-23T03:18:56;3.65;;;1.42;;
73239;SDS011;61452;40.054;4.110;2024-02-23T03:23:58;4.15;;;0.90;;
73239;SDS011;61452;40.054;4.110;2024-02-23T03:29:00;4.97;;;1.23;;
73239;SDS011;61452;40.054;4.110;2024-02-23T03:34:02;2.78;;;0.90;;
73239;SDS011;61452;40.054;4.110;2024-02-23T03:39:05;4.70;;;1.40;;
73239;SDS011;61452;40.054;4.110;2024-02-23T03:44:07;5.47;;;1.42;;
73239;SDS011;61452;40.054;4.110;2024-02-23T03:49:09;4.22;;;1.27;;
73239;SDS011;61452;40.054;4.110;2024-02-23T03:54:11;6.85;;;1.88;;
73239;SDS011;61452;40.054;4.110;2024-02-23T03:59:14;6.07;;;1.00;;
73239;SDS011;61452;40.054;4.110;2024-02-23T04:04:16;3.30;;;1.13;;
73239;SDS011;61452;40.054;4.110;2024-02-23T04:09:19;4.97;;;1.10;;
73239;SDS011;61452;40.054;4.110;2024-02-23T04:14:22;5.68;;;1.20;;
73239;SDS011;61452;40.054;4.110;2024-02-23T04:19:24;5.38;;;0.98;;
73239;SDS011;61452;40.054;4.110;2024-02-23T04:24:26;5.75;;;1.33;;
73239;SDS011;61452;40.054;4.110;2024-02-23T04:29:29;4.40;;;0.98;;
73239;SDS011;61452;40.054;4.110;2024-02-23T04:34:31;6.50;;;1.45;;
73239;SDS011;61452;40.054;4.110;2024-02-23T04:39:33;3.35;;;1.02;;
73239;SDS011;61452;40.054;4.110;2024-02-23T04:44:35;6.07;;;1.20;;
73239;SDS011;61452;40.054;4.110;2024-02-23T04:49:37;3.40;;;1.08;;
73239;SDS011;61452;40.054;4.110;2024-02-23T04:54:39;6.20;;;1.30;;
73239;SDS011;61452;40.054;4.110;2024-02-23T04:59:41;3.50;;;1.08;;
73239;SDS011;61452;40.054;4.110;2024-02-23T05:04:44;4.43;;;1.08;;
73239;SDS011;61452;40.054;4.110;2024-02-23T05:09:46;6.43;;;1.30;;
73239;SDS011;61452;40.054;4.110;2024-02-23T05:14:48;4.18;;;0.80;;
73239;SDS011;61452;40.054;4.110;2024-02-23T05:19:50;3.97;;;1.25;;
73239;SDS011;61452;40.054;4.110;2024-02-23T05:24:52;6.82;;;1.10;;
73239;SDS011;61452;40.054;4.110;2024-02-23T05:29:55;4.75;;;0.98;;
73239;SDS011;61452;40.054;4.110;2024-02-23T05:34:57;5.05;;;1.40;;
73239;SDS011;61452;40.054;4.110;2024-02-23T05:39:59;4.50;;;1.17;;
73239;SDS011;61452;40.054;4.110;2024-02-23T05:45:02;6.30;;;1.15;;
73239;SDS011;61452;40.054;4.110;2024-02-23T05:50:07;9.98;;;1.50;;
73239;SDS011;61452;40.054;4.110;2024-02-23T05:55:13;5.00;;;1.05;;
73239;SDS011;61452;40.054;4.110;2024-02-23T06:00:15;5.40;;;1.05;;
73239;SDS011;61452;40.054;4.110;2024-02-23T06:05:23;6.57;;;1.65;;
73239;SDS011;61452;40.054;4.110;2024-02-23T06:10:28;6.88;;;1.17;;
73239;SDS011;61452;40.054;4.110;2024-02-23T06:15:30;8.07;;;2.63;;
73239;SDS011;61452;40.054;4.110;2024-02-23T06:20:33;7.88;;;1.42;;
73239;SDS011;61452;40.054;4.110;2024-02-23T06:25:35;4.82;;;1.30;;
73239;SDS011;61452;40.054;4.110;2024-02-23T06:30:37;7.60;;;1.50;;
73239;SDS011;61452;40.054;4.110;2024-02-23T06:35:39;5.22;;;1.48;;
73239;SDS011;61452;40.054;4.110;2024-02-23T06:40:41;8.52;;;1.65;;
73239;SDS011;61452;40.054;4.110;2024-02-23T06:45:52;10.73;;;2.33;;
73239;SDS011;61452;40.054;4.110;2024-02-23T06:50:55;7.90;;;2.00;;
73239;SDS011;61452;40.054;4.110;2024-02-23T06:55:57;8.73;;;1.52;;
73239;SDS011;61452;40.054;4.110;2024-02-23T07:06:04;12.88;;;2.10;;
73239;SDS011;61452;40.054;4.110;2024-02-23T07:11:07;15.50;;;2.75;;
73239;SDS011;61452;40.054;4.110;2024-02-23T07:16:09;15.93;;;3.08;;
73239;SDS011;61452;40.054;4.110;2024-02-23T07:21:11;11.18;;;2.13;;
73239;SDS011;61452;40.054;4.110;2024-02-23T07:26:13;12.45;;;1.70;;
73239;SDS011;61452;40.054;4.110;2024-02-23T07:31:15;12.18;;;2.35;;
73239;SDS011;61452;40.054;4.110;2024-02-23T07:36:18;12.73;;;2.38;;
73239;SDS011;61452;40.054;4.110;2024-02-23T07:41:20;9.75;;;2.20;;
73239;SDS011;61452;40.054;4.110;2024-02-23T07:46:22;8.95;;;1.90;;
73239;SDS011;61452;40.054;4.110;2024-02-23T07:51:28;13.02;;;2.17;;
73239;SDS011;61452;40.054;4.110;2024-02-23T07:56:30;8.82;;;2.53;;
73239;SDS011;61452;40.054;4.110;2024-02-23T08:01:32;11.25;;;2.17;;
73239;SDS011;61452;40.054;4.110;2024-02-23T08:06:35;6.15;;;1.73;;
73239;SDS011;61452;40.054;4.110;2024-02-23T08:11:37;10.05;;;2.00;;
73239;SDS011;61452;40.054;4.110;2024-02-23T08:16:40;13.00;;;2.45;;
73239;SDS011;61452;40.054;4.110;2024-02-23T08:21:42;9.27;;;1.90;;
73239;SDS011;61452;40.054;4.110;2024-02-23T08:26:45;9.90;;;1.80;;
73239;SDS011;61452;40.054;4.110;2024-02-23T08:31:47;9.85;;;1.80;;
73239;SDS011;61452;40.054;4.110;2024-02-23T08:36:50;7.80;;;2.22;;
73239;SDS011;61452;40.054;4.110;2024-02-23T08:41:53;8.75;;;1.98;;
73239;SDS011;61452;40.054;4.110;2024-02-23T08:46:55;8.10;;;2.03;;
73239;SDS011;61452;40.054;4.110;2024-02-23T08:51:57;9.15;;;2.15;;
73239;SDS011;61452;40.054;4.110;2024-02-23T08:57:00;10.30;;;2.13;;
73239;SDS011;61452;40.054;4.110;2024-02-23T09:02:03;8.00;;;1.83;;
73239;SDS011;61452;40.054;4.110;2024-02-23T09:07:05;6.00;;;1.50;;
73239;SDS011;61452;40.054;4.110;2024-02-23T09:12:08;8.88;;;1.85;;
73239;SDS011;61452;40.054;4.110;2024-02-23T09:17:13;11.25;;;1.92;;
73239;SDS011;61452;40.054;4.110;2024-02-23T09:22:15;7.10;;;2.10;;
73239;SDS011;61452;40.054;4.110;2024-02-23T09:27:20;6.47;;;1.75;;
73239;SDS011;61452;40.054;4.110;2024-02-23T09:32:22;9.75;;;2.22;;
73239;SDS011;61452;40.054;4.110;2024-02-23T09:37:24;7.75;;;2.10;;
73239;SDS011;61452;40.054;4.110;2024-02-23T09:42:26;7.75;;;1.92;;
73239;SDS011;61452;40.054;4.110;2024-02-23T09:47:34;6.63;;;1.70;;
73239;SDS011;61452;40.054;4.110;2024-02-23T09:52:36;7.72;;;1.75;;
73239;SDS011;61452;40.054;4.110;2024-02-23T09:57:39;6.85;;;1.55;;
73239;SDS011;61452;40.054;4.110;2024-02-23T10:02:42;9.00;;;1.90;;
73239;SDS011;61452;40.054;4.110;2024-02-23T10:07:45;8.95;;;1.98;;
73239;SDS011;61452;40.054;4.110;2024-02-23T10:12:48;6.95;;;1.60;;
73239;SDS011;61452;40.054;4.110;2024-02-23T10:17:51;7.57;;;1.70;;
73239;SDS011;61452;40.054;4.110;2024-02-23T10:22:56;9.57;;;1.73;;
73239;SDS011;61452;40.054;4.110;2024-02-23T10:27:58;6.95;;;1.70;;
73239;SDS011;61452;40.054;4.110;2024-02-23T10:33:01;9.68;;;2.05;;
73239;SDS011;61452;40.054;4.110;2024-02-23T10:38:07;7.60;;;1.92;;
73239;SDS011;61452;40.054;4.110;2024-02-23T10:43:12;5.97;;;1.63;;
73239;SDS011;61452;40.054;4.110;2024-02-23T10:48:18;8.82;;;2.28;;
73239;SDS011;61452;40.054;4.110;2024-02-23T10:53:20;9.43;;;1.98;;
73239;SDS011;61452;40.054;4.110;2024-02-23T10:58:23;7.57;;;1.67;;
73239;SDS011;61452;40.054;4.110;2024-02-23T11:03:26;7.97;;;2.25;;
73239;SDS011;61452;40.054;4.110;2024-02-23T11:08:32;6.15;;;1.85;;
73239;SDS011;61452;40.054;4.110;2024-02-23T11:13:38;6.53;;;2.10;;
73239;SDS011;61452;40.054;4.110;2024-02-23T11:18:41;8.60;;;2.20;;
73239;SDS011;61452;40.054;4.110;2024-02-23T11:23:53;5.78;;;1.42;;
73239;SDS011;61452;40.054;4.110;2024-02-23T11:28:55;4.68;;;1.42;;
73239;SDS011;61452;40.054;4.110;2024-02-23T11:33:57;5.88;;;1.63;;
73239;SDS011;61452;40.054;4.110;2024-02-23T11:39:00;6.88;;;1.40;;
73239;SDS011;61452;40.054;4.110;2024-02-23T11:44:03;7.82;;;1.58;;
73239;SDS011;61452;40.054;4.110;2024-02-23T11:49:05;6.53;;;1.65;;
73239;SDS011;61452;40.054;4.110;2024-02-23T11:54:07;8.38;;;1.60;;
73239;SDS011;61452;40.054;4.110;2024-02-23T11:59:10;12.75;;;2.58;;
73239;SDS011;61452;40.054;4.110;2024-02-23T12:04:12;7.28;;;2.00;;
73239;SDS011;61452;40.054;4.110;2024-02-23T12:09:16;8.45;;;2.67;;
73239;SDS011;61452;40.054;4.110;2024-02-23T12:14:19;9.65;;;1.85;;
73239;SDS011;61452;40.054;4.110;2024-02-23T12:19:22;8.05;;;1.33;;
73239;SDS011;61452;40.054;4.110;2024-02-23T12:24:25;7.05;;;1.65;;
73239;SDS011;61452;40.054;4.110;2024-02-23T12:29:29;9.45;;;2.08;;
73239;SDS011;61452;40.054;4.110;2024-02-23T12:34:31;13.57;;;2.00;;
73239;SDS011;61452;40.054;4.110;2024-02-23T12:39:34;11.55;;;2.35;;
73239;SDS011;61452;40.054;4.110;2024-02-23T12:44:38;8.60;;;1.98;;
73239;SDS011;61452;40.054;4.110;2024-02-23T12:49:40;9.20;;;1.85;;
73239;SDS011;61452;40.054;4.110;2024-02-23T12:54:46;8.20;;;1.67;;
73239;SDS011;61452;40.054;4.110;2024-02-23T12:59:52;8.05;;;2.28;;
73239;SDS011;61452;40.054;4.110;2024-02-23T13:04:54;9.52;;;1.98;;
73239;SDS011;61452;40.054;4.110;2024-02-23T13:09:57;13.98;;;2.85;;
73239;SDS011;61452;40.054;4.110;2024-02-23T13:14:59;11.40;;;2.10;;
73239;SDS011;61452;40.054;4.110;2024-02-23T13:20:01;11.15;;;2.00;;
73239;SDS011;61452;40.054;4.110;2024-02-23T13:25:12;10.55;;;1.85;;
73239;SDS011;61452;40.054;4.110;2024-02-23T13:30:14;9.60;;;1.90;;
73239;SDS011;61452;40.054;4.110;2024-02-23T13:35:17;10.23;;;1.90;;
73239;SDS011;61452;40.054;4.110;2024-02-23T13:40:19;8.10;;;1.58;;
73239;SDS011;61452;40.054;4.110;2024-02-23T13:45:21;10.18;;;1.90;;
73239;SDS011;61452;40.054;4.110;2024-02-23T13:55:28;14.75;;;2.58;;
73239;SDS011;61452;40.054;4.110;2024-02-23T14:00:30;13.65;;;2.17;;
73239;SDS011;61452;40.054;4.110;2024-02-23T14:05:32;11.18;;;2.33;;
73239;SDS011;61452;40.054;4.110;2024-02-23T14:10:34;8.05;;;1.95;;
73239;SDS011;61452;40.054;4.110;2024-02-23T14:15:36;15.90;;;2.10;;
73239;SDS011;61452;40.054;4.110;2024-02-23T14:20:39;13.85;;;2.67;;
73239;SDS011;61452;40.054;4.110;2024-02-23T14:25:42;11.40;;;3.30;;
73239;SDS011;61452;40.054;4.110;2024-02-23T14:30:44;12.75;;;1.55;;
73239;SDS011;61452;40.054;4.110;2024-02-23T14:35:46;13.43;;;2.08;;
73239;SDS011;61452;40.054;4.110;2024-02-23T14:40:49;12.23;;;2.65;;
73239;SDS011;61452;40.054;4.110;2024-02-23T14:45:51;8.73;;;1.42;;
73239;SDS011;61452;40.054;4.110;2024-02-23T14:50:54;10.20;;;1.92;;
73239;SDS011;61452;40.054;4.110;2024-02-23T14:55:57;7.63;;;1.40;;
73239;SDS011;61452;40.054;4.110;2024-02-23T15:00:59;18.83;;;2.03;;
73239;SDS011;61452;40.054;4.110;2024-02-23T15:06:01;11.20;;;1.90;;
73239;SDS011;61452;40.054;4.110;2024-02-23T15:11:03;11.23;;;1.70;;
73239;SDS011;61452;40.054;4.110;2024-02-23T15:16:07;7.85;;;1.30;;
73239;SDS011;61452;40.054;4.110;2024-02-23T15:21:09;13.50;;;2.13;;
73239;SDS011;61452;40.054;4.110;2024-02-23T15:26:11;8.90;;;1.58;;
73239;SDS011;61452;40.054;4.110;2024-02-23T15:31:13;11.35;;;1.83;;
73239;SDS011;61452;40.054;4.110;2024-02-23T15:36:16;6.72;;;1.17;;
73239;SDS011;61452;40.054;4.110;2024-02-23T15:41:18;8.52;;;1.73;;
73239;SDS011;61452;40.054;4.110;2024-02-23T15:46:21;16.42;;;2.95;;
73239;SDS011;61452;40.054;4.110;2024-02-23T15:51:23;7.13;;;1.65;;
73239;SDS011;61452;40.054;4.110;2024-02-23T15:56:45;11.02;;;1.77;;
73239;SDS011;61452;40.054;4.110;2024-02-23T16:01:47;5.10;;;1.08;;
73239;SDS011;61452;40.054;4.110;2024-02-23T16:06:49;8.00;;;1.13;;
73239;SDS011;61452;40.054;4.110;2024-02-23T16:11:51;9.40;;;1.70;;
73239;SDS011;61452;40.054;4.110;2024-02-23T16:16:54;7.05;;;1.50;;
73239;SDS011;61452;40.054;4.110;2024-02-23T16:21:56;9.82;;;1.48;;
73239;SDS011;61452;40.054;4.110;2024-02-23T16:26:58;8.05;;;1.50;;
73239;SDS011;61452;40.054;4.110;2024-02-23T16:32:00;7.60;;;1.10;;
73239;SDS011;61452;40.054;4.110;2024-02-23T16:37:02;9.85;;;1.17;;
73239;SDS011;61452;40.054;4.110;2024-02-23T16:42:05;7.25;;;1.67;;
73239;SDS011;61452;40.054;4.110;2024-02-23T16:47:07;7.53;;;1.00;;
73239;SDS011;61452;40.054;4.110;2024-02-23T16:52:09;7.80;;;1.38;;
73239;SDS011;61452;40.054;4.110;2024-02-23T16:57:11;8.48;;;1.50;;
73239;SDS011;61452;40.054;4.110;2024-02-23T17:02:14;3.92;;;1.15;;
73239;SDS011;61452;40.054;4.110;2024-02-23T17:07:16;7.72;;;1.33;;
73239;SDS011;61452;40.054;4.110;2024-02-23T17:12:18;6.90;;;0.80;;
73239;SDS011;61452;40.054;4.110;2024-02-23T17:17:22;9.90;;;1.35;;
73239;SDS011;61452;40.054;4.110;2024-02-23T17:22:24;9.60;;;1.30;;
73239;SDS011;61452;40.054;4.110;2024-02-23T17:27:28;11.18;;;1.05;;
73239;SDS011;61452;40.054;4.110;2024-02-23T17:32:31;5.82;;;1.27;;
73239;SDS011;61452;40.054;4.110;2024-02-23T17:37:33;6.00;;;1.13;;
73239;SDS011;61452;40.054;4.110;2024-02-23T17:42:35;4.80;;;1.50;;
73239;SDS011;61452;40.054;4.110;2024-02-23T17:47:37;6.60;;;1.10;;
73239;SDS011;61452;40.054;4.110;2024-02-23T17:52:40;7.40;;;1.75;;
73239;SDS011;61452;40.054;4.110;2024-02-23T17:57:42;7.43;;;1.00;;
73239;SDS011;61452;40.054;4.110;2024-02-23T18:02:45;8.18;;;1.13;;
73239;SDS011;61452;40.054;4.110;2024-02-23T18:07:48;4.60;;;0.90;;
73239;SDS011;61452;40.054;4.110;2024-02-23T18:12:50;4.38;;;1.00;;
73239;SDS011;61452;40.054;4.110;2024-02-23T18:17:53;4.00;;;0.82;;
73239;SDS011;61452;40.054;4.110;2024-02-23T18:22:55;3.75;;;0.95;;
73239;SDS011;61452;40.054;4.110;2024-02-23T18:27:58;7.88;;;1.40;;
73239;SDS011;61452;40.054;4.110;2024-02-23T18:33:00;3.83;;;0.80;;
73239;SDS011;61452;40.054;4.110;2024-02-23T18:38:03;4.10;;;1.05;;
73239;SDS011;61452;40.054;4.110;2024-02-23T18:43:05;4.45;;;0.82;;
73239;SDS011;61452;40.054;4.110;2024-02-23T18:48:07;5.32;;;0.80;;
73239;SDS011;61452;40.054;4.110;2024-02-23T18:53:09;3.13;;;0.90;;
73239;SDS011;61452;40.054;4.110;2024-02-23T18:58:11;2.67;;;0.90;;
73239;SDS011;61452;40.054;4.110;2024-02-23T19:03:14;6.25;;;0.88;;
73239;SDS011;61452;40.054;4.110;2024-02-23T19:08:16;3.72;;;0.88;;
73239;SDS011;61452;40.054;4.110;2024-02-23T19:13:18;3.88;;;0.65;;
73239;SDS011;61452;40.054;4.110;2024-02-23T19:18:20;3.65;;;0.80;;
73239;SDS011;61452;40.054;4.110;2024-02-23T19:23:22;3.53;;;0.57;;
73239;SDS011;61452;40.054;4.110;2024-02-23T19:28:24;4.53;;;0.80;;
73239;SDS011;61452;40.054;4.110;2024-02-23T19:33:27;3.10;;;0.65;;
73239;SDS011;61452;40.054;4.110;2024-02-23T19:38:29;4.07;;;0.55;;
73239;SDS011;61452;40.054;4.110;2024-02-23T19:43:32;3.40;;;0.70;;
73239;SDS011;61452;40.054;4.110;2024-02-23T19:48:34;3.85;;;0.60;;
73239;SDS011;61452;40.054;4.110;2024-02-23T19:53:36;3.90;;;0.70;;
73239;SDS011;61452;40.054;4.110;2024-02-23T19:58:38;2.30;;;0.70;;
73239;SDS011;61452;40.054;4.110;2024-02-23T20:03:40;4.50;;;0.70;;
73239;SDS011;61452;40.054;4.110;2024-02-23T20:08:42;1.95;;;0.40;;
73239;SDS011;61452;40.054;4.110;2024-02-23T20:13:44;2.55;;;0.47;;
73239;SDS011;61452;40.054;4.110;2024-02-23T20:18:48;3.05;;;0.88;;
73239;SDS011;61452;40.054;4.110;2024-02-23T20:23:50;2.80;;;0.60;;
73239;SDS011;61452;40.054;4.110;2024-02-23T20:28:52;1.60;;;0.40;;
73239;SDS011;61452;40.054;4.110;2024-02-23T20:33:54;2.13;;;0.40;;
73239;SDS011;61452;40.054;4.110;2024-02-23T20:38:57;1.92;;;0.43;;
73239;SDS011;61452;40.054;4.110;2024-02-23T20:43:59;2.95;;;0.70;;
73239;SDS011;61452;40.054;4.110;2024-02-23T20:49:01;2.25;;;0.40;;
73239;SDS011;61452;40.054;4.110;2024-02-23T20:54:04;2.05;;;0.50;;
73239;SDS011;61452;40.054;4.110;2024-02-23T21:04:10;1.85;;;0.45;;
73239;SDS011;61452;40.054;4.110;2024-02-23T21:09:12;2.88;;;0.70;;
73239;SDS011;61452;40.054;4.110;2024-02-23T21:14:14;2.50;;;0.73;;
73239;SDS011;61452;40.054;4.110;2024-02-23T21:19:18;2.30;;;0.57;;
73239;SDS011;61452;40.054;4.110;2024-02-23T21:24:20;3.08;;;0.50;;
73239;SDS011;61452;40.054;4.110;2024-02-23T21:29:22;1.90;;;0.60;;
73239;SDS011;61452;40.054;4.110;2024-02-23T21:34:24;1.35;;;0.35;;
73239;SDS011;61452;40.054;4.110;2024-02-23T21:39:26;1.73;;;0.75;;
73239;SDS011;61452;40.054;4.110;2024-02-23T21:44:29;1.35;;;0.38;;
73239;SDS011;61452;40.054;4.110;2024-02-23T21:49:31;1.30;;;0.50;;
73239;SDS011;61452;40.054;4.110;2024-02-23T21:54:33;3.13;;;0.40;;
73239;SDS011;61452;40.054;4.110;2024-02-23T21:59:35;2.25;;;0.45;;
73239;SDS011;61452;40.054;4.110;2024-02-23T22:04:37;1.30;;;0.30;;
73239;SDS011;61452;40.054;4.110;2024-02-23T22:09:41;1.60;;;0.40;;
73239;SDS011;61452;40.054;4.110;2024-02-23T22:14:48;1.95;;;0.68;;
73239;SDS011;61452;40.054;4.110;2024-02-23T22:19:50;2.05;;;0.38;;
73239;SDS011;61452;40.054;4.110;2024-02-23T22:24:52;1.88;;;0.60;;
73239;SDS011;61452;40.054;4.110;2024-02-23T22:29:58;1.30;;;0.30;;
73239;SDS011;61452;40.054;4.110;2024-02-23T22:35:00;1.38;;;0.30;;
73239;SDS011;61452;40.054;4.110;2024-02-23T22:40:03;1.80;;;0.35;;
73239;SDS011;61452;40.054;4.110;2024-02-23T22:45:06;1.38;;;0.63;;
73239;SDS011;61452;40.054;4.110;2024-02-23T22:50:08;1.85;;;0.45;;
73239;SDS011;61452;40.054;4.110;2024-02-23T22:55:11;1.98;;;0.30;;
73239;SDS011;61452;40.054;4.110;2024-02-23T23:00:13;3.85;;;0.60;;
73239;SDS011;61452;40.054;4.110;2024-02-23T23:05:16;1.73;;;0.40;;
73239;SDS011;61452;40.054;4.110;2024-02-23T23:10:18;2.70;;;0.30;;
73239;SDS011;61452;40.054;4.110;2024-02-23T23:15:20;1.42;;;0.60;;
73239;SDS011;61452;40.054;4.110;2024-02-23T23:20:22;1.67;;;0.35;;
73239;SDS011;61452;40.054;4.110;2024-02-23T23:25:25;1.48;;;0.45;;
73239;SDS011;61452;40.054;4.110;2024-02-23T23:30:27;1.77;;;0.55;;
73239;SDS011;61452;40.054;4.110;2024-02-23T23:35:29;1.45;;;0.30;;
73239;SDS011;61452;40.054;4.110;2024-02-23T23:40:31;1.75;;;0.50;;
73239;SDS011;61452;40.054;4.110;2024-02-23T23:45:33;0.82;;;0.30;;
73239;SDS011;61452;40.054;4.110;2024-02-23T23:50:35;1.20;;;0.30;;
73239;SDS011;61452;40.054;4.110;2024-02-23T23:55:38;2.50;;;0.50;;
